Time,TemperatureF,DewpointF,PressureIn,WindDirection,WindDirectionDegrees,WindSpeedMPH,WindSpeedGustMPH,Humidity,HourlyPrecipIn,Conditions,Clouds,dailyrainin,SoftwareType,DateUTC
2013-01-29 07:03:00,51.3,38.3,28.88,WSW,238,0.0,0.0,61,0.00,,SCT043,0.00,VWS V14.01,2013-01-29 12:03:00,
2013-01-29 07:08:00,51.1,38.1,28.88,WSW,238,0.0,0.0,61,0.00,,SCT043,0.00,VWS V14.01,2013-01-29 12:08:00,
2013-01-29 07:14:00,50.7,38.2,28.88,North,353,2.7,2.7,62,0.00,,SCT043,0.00,VWS V14.01,2013-01-29 12:14:00,
2013-01-29 07:19:00,51.1,38.5,28.88,North,353,0.0,0.0,62,0.00,,SCT043,0.00,VWS V14.01,2013-01-29 12:19:00,
2013-01-29 07:24:00,50.7,36.5,28.88,North,353,0.0,0.0,58,0.00,,SCT043,0.00,VWS V14.01,2013-01-29 12:24:00,
2013-01-29 07:29:00,50.0,36.7,28.88,SSW,201,0.0,0.0,60,0.00,,SCT043,0.00,VWS V14.01,2013-01-29 12:29:00,
2013-01-29 07:34:00,49.6,38.0,28.88,SSW,201,0.0,0.0,64,0.00,,FEW041,0.00,VWS V14.01,2013-01-29 12:34:00,
2013-01-29 07:39:00,49.6,38.8,28.88,SSW,201,0.0,0.0,66,0.00,,FEW041,0.00,VWS V14.01,2013-01-29 12:39:00,
2013-01-29 07:44:00,50.4,38.3,28.88,SSW,201,0.0,0.0,63,0.00,,FEW041,0.00,VWS V14.01,2013-01-29 12:44:00,
2013-01-29 07:49:00,49.8,36.9,28.88,SSW,201,0.0,0.0,61,0.00,,FEW041,0.00,VWS V14.01,2013-01-29 12:49:00,
2013-01-29 07:54:00,49.8,38.2,28.88,SSW,201,0.0,0.0,64,0.00,,FEW041,0.00,VWS V14.01,2013-01-29 12:54:00,
2013-01-29 07:59:00,50.0,37.9,28.88,SSW,201,0.0,0.0,63,0.00,,FEW041,0.00,VWS V14.01,2013-01-29 12:59:00,
2013-01-29 08:04:00,49.6,37.2,28.88,SSW,201,0.0,0.0,62,0.00,,BKN055,0.00,VWS V14.01,2013-01-29 13:04:00,
2013-01-29 08:10:00,49.6,38.0,28.88,SSW,201,0.0,0.0,64,0.00,,BKN055,0.00,VWS V14.01,2013-01-29 13:10:00,
2013-01-29 08:15:00,49.8,37.8,28.88,SSW,201,0.0,0.0,63,0.00,,BKN055,0.00,VWS V14.01,2013-01-29 13:15:00,
2013-01-29 08:20:00,50.4,38.7,28.88,SSW,201,0.0,0.0,64,0.00,,BKN055,0.00,VWS V14.01,2013-01-29 13:20:00,
2013-01-29 08:25:00,50.9,38.4,28.88,SSW,201,0.0,0.0,62,0.00,,BKN055,0.00,VWS V14.01,2013-01-29 13:25:00,
2013-01-29 08:30:00,51.4,37.6,28.88,SSW,201,0.0,0.0,59,0.00,,BKN055,0.00,VWS V14.01,2013-01-29 13:30:00,
2013-01-29 08:35:00,51.4,37.6,28.88,SSW,201,0.0,0.0,59,0.00,,BKN055,0.00,VWS V14.01,2013-01-29 13:35:00,
2013-01-29 08:40:00,52.2,37.8,28.88,SSW,201,0.0,0.0,58,0.00,,BKN055,0.00,VWS V14.01,2013-01-29 13:40:00,
2013-01-29 08:45:00,52.2,37.8,28.88,SSW,201,0.0,0.0,58,0.00,,BKN055,0.00,VWS V14.01,2013-01-29 13:45:00,
2013-01-29 08:50:00,53.4,37.2,28.88,SSW,201,0.0,0.0,54,0.00,,BKN055,0.00,VWS V14.01,2013-01-29 13:50:00,
2013-01-29 08:55:00,54.1,36.4,28.88,SSW,201,0.0,0.0,51,0.00,,BKN055,0.00,VWS V14.01,2013-01-29 13:55:00,
2013-01-29 09:00:00,54.7,36.4,28.88,SSW,201,0.0,0.0,50,0.00,,BKN055,0.00,VWS V14.01,2013-01-29 14:00:00,
2013-01-29 09:06:00,55.8,36.4,28.91,SSW,201,0.0,0.0,48,0.00,,FEW060,0.00,VWS V14.01,2013-01-29 14:06:00,
2013-01-29 09:11:00,56.8,35.7,28.91,ENE,71,0.0,2.7,45,0.00,,FEW060,0.00,VWS V14.01,2013-01-29 14:11:00,
2013-01-29 09:16:00,57.6,35.8,28.88,ESE,103,3.1,3.1,44,0.00,,FEW060,0.00,VWS V14.01,2013-01-29 14:16:00,
2013-01-29 09:21:00,57.9,34.4,28.88,ESE,103,0.0,0.0,41,0.00,,FEW060,0.00,VWS V14.01,2013-01-29 14:21:00,
2013-01-29 09:26:00,58.5,34.9,28.88,East,89,0.0,0.0,41,0.00,,FEW060,0.00,VWS V14.01,2013-01-29 14:26:00,
2013-01-29 09:31:00,59.0,34.1,28.88,East,89,2.2,2.2,39,0.00,,FEW060,0.00,VWS V14.01,2013-01-29 14:31:00,
2013-01-29 09:36:00,59.5,34.6,28.88,East,89,0.0,0.0,39,0.00,,FEW060,0.00,VWS V14.01,2013-01-29 14:36:00,
2013-01-29 09:41:00,60.4,36.0,28.88,SE,133,0.0,2.7,40,0.00,,FEW060,0.00,VWS V14.01,2013-01-29 14:41:00,
2013-01-29 09:46:00,60.8,34.4,28.88,SE,133,0.0,2.7,37,0.00,,FEW060,0.00,VWS V14.01,2013-01-29 14:46:00,
2013-01-29 09:51:00,60.8,34.4,28.88,SE,133,0.0,0.0,37,0.00,,FEW060,0.00,VWS V14.01,2013-01-29 14:51:00,
2013-01-29 09:56:00,61.7,34.5,28.88,SE,133,0.0,0.0,36,0.00,,FEW060,0.00,VWS V14.01,2013-01-29 14:56:00,
2013-01-29 10:01:00,62.2,35.0,28.88,SE,133,2.2,2.7,36,0.00,,FEW060,0.00,VWS V14.01,2013-01-29 15:01:00,
2013-01-29 10:07:00,63.1,34.3,28.88,East,94,2.2,3.6,34,0.00,,FEW060,0.00,VWS V14.01,2013-01-29 15:07:00,
2013-01-29 10:12:00,63.3,35.2,28.88,East,95,0.0,0.0,35,0.00,,FEW060,0.00,VWS V14.01,2013-01-29 15:12:00,
2013-01-29 10:17:00,63.9,35.0,28.91,East,94,0.0,0.0,34,0.00,,FEW060,0.00,VWS V14.01,2013-01-29 15:17:00,
2013-01-29 10:22:00,64.6,34.8,28.91,East,94,0.0,0.0,33,0.00,,FEW060,0.00,VWS V14.01,2013-01-29 15:22:00,
2013-01-29 10:27:00,64.4,34.7,28.91,East,94,0.0,0.0,33,0.00,,FEW060,0.00,VWS V14.01,2013-01-29 15:27:00,
2013-01-29 10:32:00,64.9,35.2,28.88,East,94,0.0,0.0,33,0.00,,CLR,0.00,VWS V14.01,2013-01-29 15:32:00,
2013-01-29 10:37:00,64.9,35.2,28.88,ESE,112,2.2,2.2,33,0.00,,CLR,0.00,VWS V14.01,2013-01-29 15:37:00,
2013-01-29 10:42:00,65.5,35.6,28.88,NE,37,4.0,4.0,33,0.00,,CLR,0.00,VWS V14.01,2013-01-29 15:42:00,
2013-01-29 10:47:00,65.8,36.0,28.88,ENE,70,0.0,0.0,33,0.00,,CLR,0.00,VWS V14.01,2013-01-29 15:47:00,
2013-01-29 10:52:00,66.7,34.3,28.88,East,92,2.7,2.7,30,0.00,,CLR,0.00,VWS V14.01,2013-01-29 15:52:00,
2013-01-29 10:57:00,66.9,34.5,28.88,East,92,2.7,2.7,30,0.00,,CLR,0.00,VWS V14.01,2013-01-29 15:57:00,
2013-01-29 11:02:00,66.4,34.9,28.88,East,80,2.7,2.7,31,0.00,,CLR,0.00,VWS V14.01,2013-01-29 16:02:00,
2013-01-29 11:07:00,67.1,35.5,28.88,East,89,2.2,2.2,31,0.00,,CLR,0.00,VWS V14.01,2013-01-29 16:07:00,
2013-01-29 11:12:00,67.1,35.5,28.88,ENE,60,0.0,3.1,31,0.00,,CLR,0.00,VWS V14.01,2013-01-29 16:12:00,
2013-01-29 11:17:00,67.1,35.5,28.88,ESE,103,3.1,3.1,31,0.00,,CLR,0.00,VWS V14.01,2013-01-29 16:17:00,
2013-01-29 11:23:00,67.6,35.1,28.88,ESE,115,2.7,2.7,30,0.00,,CLR,0.00,VWS V14.01,2013-01-29 16:23:00,
2013-01-29 11:28:00,67.5,34.1,28.88,NE,42,3.6,3.6,29,0.00,,CLR,0.00,VWS V14.01,2013-01-29 16:28:00,
2013-01-29 11:33:00,67.3,34.0,28.88,NNE,26,0.0,3.1,29,0.00,,CLR,0.00,VWS V14.01,2013-01-29 16:33:00,
2013-01-29 11:38:00,67.5,34.1,28.88,East,98,2.2,3.6,29,0.00,,CLR,0.00,VWS V14.01,2013-01-29 16:38:00,
2013-01-29 11:43:00,68.2,33.9,28.88,East,97,2.7,2.7,28,0.00,,CLR,0.00,VWS V14.01,2013-01-29 16:43:00,
2013-01-29 11:48:00,68.2,33.9,28.85,East,83,0.0,0.0,28,0.00,,CLR,0.00,VWS V14.01,2013-01-29 16:48:00,
2013-01-29 11:53:00,68.0,33.7,28.85,ENE,72,3.1,3.1,28,0.00,,CLR,0.00,VWS V14.01,2013-01-29 16:53:00,
2013-01-29 11:58:00,67.6,33.4,28.85,East,95,0.0,0.0,28,0.00,,CLR,0.00,VWS V14.01,2013-01-29 16:58:00,
2013-01-29 12:03:00,67.8,34.4,28.85,ESE,106,2.2,3.1,29,0.00,,CLR,0.00,VWS V14.01,2013-01-29 17:03:00,
2013-01-29 12:08:00,67.8,33.5,28.85,ESE,106,2.2,2.2,28,0.00,,CLR,0.00,VWS V14.01,2013-01-29 17:08:00,
2013-01-29 12:13:00,68.0,32.8,28.85,ESE,106,0.0,0.0,27,0.00,,CLR,0.00,VWS V14.01,2013-01-29 17:13:00,
2013-01-29 12:18:00,67.5,33.2,28.85,ESE,106,0.0,0.0,28,0.00,,CLR,0.00,VWS V14.01,2013-01-29 17:18:00,
2013-01-29 12:23:00,68.0,33.7,28.85,ESE,106,0.0,0.0,28,0.00,,CLR,0.00,VWS V14.01,2013-01-29 17:23:00,
2013-01-29 12:29:00,68.9,32.6,28.85,SE,142,0.0,2.2,26,0.00,,CLR,0.00,VWS V14.01,2013-01-29 17:29:00,
2013-01-29 12:34:00,69.4,34.0,28.85,SE,142,0.0,0.0,27,0.00,,CLR,0.00,VWS V14.01,2013-01-29 17:34:00,
2013-01-29 12:39:00,69.4,33.1,28.85,ENE,76,2.7,3.1,26,0.00,,CLR,0.00,VWS V14.01,2013-01-29 17:39:00,
2013-01-29 12:44:00,70.0,33.5,28.85,West,272,2.7,2.7,26,0.00,,CLR,0.00,VWS V14.01,2013-01-29 17:44:00,
2013-01-29 12:49:00,70.5,33.0,28.85,WSW,244,0.0,0.0,25,0.00,,CLR,0.00,VWS V14.01,2013-01-29 17:49:00,
2013-01-29 12:54:00,71.1,33.5,28.85,SE,142,2.7,4.0,25,0.00,,CLR,0.00,VWS V14.01,2013-01-29 17:54:00,
2013-01-29 12:59:00,70.7,33.2,28.85,ENE,59,2.7,2.7,25,0.00,,CLR,0.00,VWS V14.01,2013-01-29 17:59:00,
2013-01-29 13:04:00,71.2,33.6,28.85,SW,219,2.7,2.7,25,0.00,,FEW055,0.00,VWS V14.01,2013-01-29 18:04:00,
2013-01-29 13:09:00,70.9,33.3,28.85,NE,53,2.7,3.6,25,0.00,,FEW055,0.00,VWS V14.01,2013-01-29 18:09:00,
2013-01-29 13:14:00,71.4,33.8,28.85,ESE,121,0.0,0.0,25,0.00,,FEW055,0.00,VWS V14.01,2013-01-29 18:14:00,
2013-01-29 13:20:00,71.4,33.8,28.82,West,279,0.0,0.0,25,0.00,,FEW055,0.00,VWS V14.01,2013-01-29 18:20:00,
2013-01-29 13:25:00,71.8,33.1,28.82,NE,37,3.1,3.1,24,0.00,,FEW055,0.00,VWS V14.01,2013-01-29 18:25:00,
2013-01-29 13:30:00,71.4,32.8,28.82,ESE,120,0.0,2.7,24,0.00,,FEW055,0.00,VWS V14.01,2013-01-29 18:30:00,
2013-01-29 13:35:00,71.6,32.9,28.82,ENE,75,3.1,3.1,24,0.00,,FEW055,0.00,VWS V14.01,2013-01-29 18:35:00,
2013-01-29 13:40:00,72.3,33.5,28.82,SSE,162,2.7,2.7,24,0.00,,FEW055,0.00,VWS V14.01,2013-01-29 18:40:00,
2013-01-29 13:45:00,71.2,32.6,28.82,West,262,2.7,3.1,24,0.00,,FEW055,0.00,VWS V14.01,2013-01-29 18:45:00,
2013-01-29 13:50:00,71.2,33.6,28.82,WSW,237,0.0,0.0,25,0.00,,FEW055,0.00,VWS V14.01,2013-01-29 18:50:00,
2013-01-29 13:55:00,71.2,33.6,28.82,WSW,237,0.0,0.0,25,0.00,,FEW055,0.00,VWS V14.01,2013-01-29 18:55:00,
2013-01-29 14:00:00,72.0,33.2,28.82,NNE,12,0.0,0.0,24,0.00,,FEW055,0.00,VWS V14.01,2013-01-29 19:00:00,
2013-01-29 14:05:00,71.8,33.1,28.79,NNE,22,3.6,4.0,24,0.00,,CLR,0.00,VWS V14.01,2013-01-29 19:05:00,
2013-01-29 14:10:00,71.8,33.1,28.79,NNE,27,3.6,3.6,24,0.00,,CLR,0.00,VWS V14.01,2013-01-29 19:10:00,
2013-01-29 14:15:00,72.9,34.0,28.79,ENE,71,2.2,4.0,24,0.00,,CLR,0.00,VWS V14.01,2013-01-29 19:15:00,
2013-01-29 14:20:00,72.5,33.7,28.79,NNE,20,2.2,2.2,24,0.00,,CLR,0.00,VWS V14.01,2013-01-29 19:20:00,
2013-01-29 14:25:00,72.0,33.2,28.79,NW,314,0.0,0.0,24,0.00,,CLR,0.00,VWS V14.01,2013-01-29 19:25:00,
2013-01-29 14:30:00,71.4,32.8,28.79,NW,305,0.0,0.0,24,0.00,,CLR,0.00,VWS V14.01,2013-01-29 19:30:00,
2013-01-29 14:35:00,71.1,33.5,28.79,NNE,30,0.0,0.0,25,0.00,,CLR,0.00,VWS V14.01,2013-01-29 19:35:00,
2013-01-29 14:40:00,71.4,33.8,28.79,West,269,0.0,2.2,25,0.00,,CLR,0.00,VWS V14.01,2013-01-29 19:40:00,
2013-01-29 14:45:00,71.8,33.1,28.79,ENE,70,0.0,0.0,24,0.00,,CLR,0.00,VWS V14.01,2013-01-29 19:45:00,
2013-01-29 14:50:00,71.8,33.1,28.79,ENE,60,2.7,2.7,24,0.00,,CLR,0.00,VWS V14.01,2013-01-29 19:50:00,
2013-01-29 14:55:00,72.1,33.4,28.79,NNE,14,0.0,0.0,24,0.00,,CLR,0.00,VWS V14.01,2013-01-29 19:55:00,
2013-01-29 14:58:00,72.0,33.2,28.79,NNE,17,0.0,0.0,24,0.00,,CLR,0.00,VWS V14.01,2013-01-29 19:58:00,
2013-01-29 15:03:00,72.3,33.5,28.79,North,353,0.0,0.0,24,0.00,,SCT095,0.00,VWS V14.01,2013-01-29 20:03:00,
2013-01-29 15:08:00,72.3,33.5,28.79,ENE,59,2.2,2.2,24,0.00,,SCT095,0.00,VWS V14.01,2013-01-29 20:08:00,
2013-01-29 15:13:00,72.7,33.8,28.79,NNE,21,0.0,0.0,24,0.00,,SCT095,0.00,VWS V14.01,2013-01-29 20:13:00,
2013-01-29 15:19:00,72.7,33.8,28.79,NW,320,0.0,0.0,24,0.00,,SCT095,0.00,VWS V14.01,2013-01-29 20:19:00,
2013-01-29 15:24:00,72.9,32.9,28.79,NNE,26,2.7,3.1,23,0.00,,SCT095,0.00,VWS V14.01,2013-01-29 20:24:00,
2013-01-29 15:29:00,72.9,34.0,28.79,North,9,0.0,0.0,24,0.00,,SCT095,0.00,VWS V14.01,2013-01-29 20:29:00,
2013-01-29 15:34:00,73.8,33.7,28.79,ESE,113,0.0,0.0,23,0.00,,SCT095,0.00,VWS V14.01,2013-01-29 20:34:00,
2013-01-29 15:39:00,74.3,34.1,28.79,NE,56,4.0,4.0,23,0.00,,SCT095,0.00,VWS V14.01,2013-01-29 20:39:00,
2013-01-29 15:44:00,73.9,32.7,28.79,South,184,5.8,6.3,22,0.00,,SCT095,0.00,VWS V14.01,2013-01-29 20:44:00,
2013-01-29 15:49:00,73.6,32.4,28.79,South,184,4.9,4.9,22,0.00,,SCT095,0.00,VWS V14.01,2013-01-29 20:49:00,
2013-01-29 15:54:00,73.4,32.3,28.79,East,91,3.6,3.6,22,0.00,,SCT095,0.00,VWS V14.01,2013-01-29 20:54:00,
2013-01-29 15:59:00,73.4,32.3,28.79,SE,141,4.0,4.0,22,0.00,,SCT095,0.00,VWS V14.01,2013-01-29 20:59:00,
2013-01-29 16:04:00,73.0,32.0,28.79,SE,126,3.1,3.1,22,0.00,,FEW095,0.00,VWS V14.01,2013-01-29 21:04:00,
2013-01-29 16:09:00,72.9,32.9,28.79,SE,132,2.2,2.2,23,0.00,,FEW095,0.00,VWS V14.01,2013-01-29 21:09:00,
2013-01-29 16:14:00,72.7,31.7,28.79,SSE,156,3.6,3.6,22,0.00,,FEW095,0.00,VWS V14.01,2013-01-29 21:14:00,
2013-01-29 16:19:00,72.9,31.8,28.76,SSE,154,0.0,0.0,22,0.00,,FEW095,0.00,VWS V14.01,2013-01-29 21:19:00,
2013-01-29 16:24:00,72.9,31.8,28.76,SW,234,0.0,0.0,22,0.00,,FEW095,0.00,VWS V14.01,2013-01-29 21:24:00,
2013-01-29 16:29:00,72.7,31.7,28.76,SE,136,2.7,5.4,22,0.00,,FEW095,0.00,VWS V14.01,2013-01-29 21:29:00,
2013-01-29 16:34:00,72.5,31.5,28.76,SE,141,3.6,3.6,22,0.00,,FEW095,0.00,VWS V14.01,2013-01-29 21:34:00,
2013-01-29 16:39:00,72.1,32.3,28.76,SSE,149,4.0,4.0,23,0.00,,FEW095,0.00,VWS V14.01,2013-01-29 21:39:00,
2013-01-29 16:45:00,71.8,30.9,28.76,ESE,108,0.0,0.0,22,0.00,,FEW095,0.00,VWS V14.01,2013-01-29 21:45:00,
2013-01-29 16:50:00,71.4,31.7,28.76,SE,127,2.7,2.7,23,0.00,,FEW095,0.00,VWS V14.01,2013-01-29 21:50:00,
2013-01-29 16:55:00,71.2,31.6,28.76,SE,138,2.7,2.7,23,0.00,,FEW095,0.00,VWS V14.01,2013-01-29 21:55:00,
2013-01-29 17:00:00,70.9,31.3,28.76,SSE,152,2.2,2.2,23,0.00,,FEW095,0.00,VWS V14.01,2013-01-29 22:00:00,
2013-01-29 17:05:00,70.7,31.1,28.76,SSE,147,3.6,4.0,23,0.00,,CLR,0.00,VWS V14.01,2013-01-29 22:05:00,
2013-01-29 17:10:00,70.5,31.0,28.76,ESE,112,3.1,3.1,23,0.00,,CLR,0.00,VWS V14.01,2013-01-29 22:10:00,
2013-01-29 17:15:00,70.3,30.8,28.76,SSW,200,8.7,8.7,23,0.00,,CLR,0.00,VWS V14.01,2013-01-29 22:15:00,
2013-01-29 17:20:00,70.2,30.7,28.76,South,177,6.3,11.0,23,0.00,,CLR,0.00,VWS V14.01,2013-01-29 22:20:00,
2013-01-29 17:25:00,69.6,30.2,28.76,South,176,3.6,5.8,23,0.00,,CLR,0.00,VWS V14.01,2013-01-29 22:25:00,
2013-01-29 17:30:00,68.9,29.6,28.76,NNE,21,2.7,3.1,23,0.00,,CLR,0.00,VWS V14.01,2013-01-29 22:30:00,
2013-01-29 17:35:00,68.2,29.0,28.76,SE,127,0.0,0.0,23,0.00,,CLR,0.00,VWS V14.01,2013-01-29 22:35:00,
2013-01-29 17:40:00,67.8,29.7,28.76,SSW,196,5.8,5.8,24,0.00,,CLR,0.00,VWS V14.01,2013-01-29 22:40:00,
2013-01-29 17:45:00,67.6,29.6,28.76,SSW,193,3.6,3.6,24,0.00,,CLR,0.00,VWS V14.01,2013-01-29 22:45:00,
2013-01-29 17:50:00,67.1,29.1,28.76,SE,136,3.1,3.1,24,0.00,,CLR,0.00,VWS V14.01,2013-01-29 22:50:00,
2013-01-29 17:55:00,66.9,29.0,28.76,South,189,3.1,3.1,24,0.00,,CLR,0.00,VWS V14.01,2013-01-29 22:55:00,
2013-01-29 18:01:00,66.6,28.7,28.76,South,178,4.9,4.9,24,0.00,,CLR,0.00,VWS V14.01,2013-01-29 23:01:00,
2013-01-29 18:06:00,66.4,28.5,28.76,SSW,192,2.7,3.6,24,0.00,,CLR,0.00,VWS V14.01,2013-01-29 23:06:00,
2013-01-29 18:11:00,66.4,28.5,28.76,SSW,207,4.9,5.4,24,0.00,,CLR,0.00,VWS V14.01,2013-01-29 23:11:00,
2013-01-29 18:16:00,66.0,29.2,28.76,SSW,212,3.1,3.6,25,0.00,,CLR,0.00,VWS V14.01,2013-01-29 23:16:00,
2013-01-29 18:21:00,65.8,29.1,28.76,South,180,4.0,4.0,25,0.00,,CLR,0.00,VWS V14.01,2013-01-29 23:21:00,
2013-01-29 18:26:00,65.7,28.9,28.76,South,188,3.1,3.1,25,0.00,,CLR,0.00,VWS V14.01,2013-01-29 23:26:00,
2013-01-29 18:31:00,65.3,28.6,28.76,SW,221,3.6,4.0,25,0.00,,CLR,0.00,VWS V14.01,2013-01-29 23:31:00,
2013-01-29 18:36:00,65.8,29.1,28.76,SSW,210,6.3,6.3,25,0.00,,CLR,0.00,VWS V14.01,2013-01-29 23:36:00,
2013-01-29 18:41:00,65.8,29.1,28.76,SSW,206,4.0,4.0,25,0.00,,CLR,0.00,VWS V14.01,2013-01-29 23:41:00,
2013-01-29 18:46:00,65.8,30.0,28.76,South,172,5.4,5.4,26,0.00,,CLR,0.00,VWS V14.01,2013-01-29 23:46:00,
2013-01-29 18:51:00,65.7,29.9,28.76,SSW,195,5.4,5.4,26,0.00,,CLR,0.00,VWS V14.01,2013-01-29 23:51:00,
2013-01-29 18:56:00,65.5,30.6,28.76,SE,128,0.0,2.2,27,0.00,,CLR,0.00,VWS V14.01,2013-01-29 23:56:00,
2013-01-29 19:01:00,65.3,30.5,28.76,SSW,200,2.7,2.7,27,0.00,,CLR,0.00,VWS V14.01,2013-01-30 00:01:00,
2013-01-29 19:06:00,64.6,29.9,28.76,NNE,29,0.0,0.0,27,0.00,,CLR,0.00,VWS V14.01,2013-01-30 00:06:00,
2013-01-29 19:11:00,64.0,30.3,28.76,NE,34,2.7,3.6,28,0.00,,CLR,0.00,VWS V14.01,2013-01-30 00:11:00,
2013-01-29 19:16:00,64.0,31.2,28.76,NE,36,2.2,2.7,29,0.00,,CLR,0.00,VWS V14.01,2013-01-30 00:16:00,
2013-01-29 19:22:00,63.5,31.5,28.76,NE,36,0.0,0.0,30,0.00,,CLR,0.00,VWS V14.01,2013-01-30 00:22:00,
2013-01-29 19:27:00,63.5,33.9,28.76,ENE,63,3.6,3.6,33,0.00,,CLR,0.00,VWS V14.01,2013-01-30 00:27:00,
2013-01-29 19:32:00,62.6,33.1,28.76,WSW,239,2.2,2.2,33,0.00,,CLR,0.00,VWS V14.01,2013-01-30 00:32:00,
2013-01-29 19:37:00,62.2,33.5,28.76,WSW,239,0.0,0.0,34,0.00,,CLR,0.00,VWS V14.01,2013-01-30 00:37:00,
2013-01-29 19:42:00,62.1,33.4,28.76,WSW,239,0.0,0.0,34,0.00,,CLR,0.00,VWS V14.01,2013-01-30 00:42:00,
2013-01-29 19:47:00,61.7,33.8,28.76,WSW,239,0.0,0.0,35,0.00,,CLR,0.00,VWS V14.01,2013-01-30 00:47:00,
2013-01-29 19:52:00,61.3,33.5,28.76,WSW,239,0.0,0.0,35,0.00,,CLR,0.00,VWS V14.01,2013-01-30 00:52:00,
2013-01-29 19:57:00,60.8,33.0,28.76,East,95,2.7,3.1,35,0.00,,CLR,0.00,VWS V14.01,2013-01-30 00:57:00,
2013-01-29 20:02:00,60.8,35.1,28.76,South,186,0.0,0.0,38,0.00,,CLR,0.00,VWS V14.01,2013-01-30 01:02:00,
2013-01-29 20:07:00,61.5,35.0,28.76,NNE,26,0.0,0.0,37,0.00,,CLR,0.00,VWS V14.01,2013-01-30 01:07:00,
2013-01-29 20:12:00,61.9,35.3,28.76,NNE,23,0.0,0.0,37,0.00,,CLR,0.00,VWS V14.01,2013-01-30 01:12:00,
2013-01-29 20:17:00,61.9,36.0,28.76,North,353,0.0,0.0,38,0.00,,CLR,0.00,VWS V14.01,2013-01-30 01:17:00,
2013-01-29 20:22:00,62.1,36.2,28.76,NNW,342,0.0,0.0,38,0.00,,CLR,0.00,VWS V14.01,2013-01-30 01:22:00,
2013-01-29 20:27:00,61.7,36.5,28.76,NNW,342,0.0,0.0,39,0.00,,CLR,0.00,VWS V14.01,2013-01-30 01:27:00,
2013-01-29 20:32:00,61.0,36.5,28.76,SW,234,0.0,0.0,40,0.00,,CLR,0.00,VWS V14.01,2013-01-30 01:32:00,
2013-01-29 20:38:00,60.8,36.3,28.76,NNW,337,0.0,0.0,40,0.00,,CLR,0.00,VWS V14.01,2013-01-30 01:38:00,
2013-01-29 20:43:00,60.1,36.9,28.76,SSW,196,0.0,0.0,42,0.00,,CLR,0.00,VWS V14.01,2013-01-30 01:43:00,
2013-01-29 20:48:00,59.9,37.4,28.76,SSW,196,0.0,0.0,43,0.00,,CLR,0.00,VWS V14.01,2013-01-30 01:48:00,
2013-01-29 20:53:00,59.7,37.8,28.76,SSW,196,0.0,0.0,44,0.00,,CLR,0.00,VWS V14.01,2013-01-30 01:53:00,
2013-01-29 20:58:00,59.7,38.4,28.76,SSW,196,0.0,0.0,45,0.00,,CLR,0.00,VWS V14.01,2013-01-30 01:58:00,
2013-01-29 21:03:00,59.4,38.0,28.76,SSW,196,0.0,0.0,45,0.00,,CLR,0.00,VWS V14.01,2013-01-30 02:03:00,
2013-01-29 21:08:00,59.2,38.4,28.76,SSW,196,0.0,0.0,46,0.00,,CLR,0.00,VWS V14.01,2013-01-30 02:08:00,
2013-01-29 21:13:00,58.8,37.5,28.76,SSW,196,0.0,0.0,45,0.00,,CLR,0.00,VWS V14.01,2013-01-30 02:13:00,
2013-01-29 21:18:00,58.8,38.7,28.76,SSW,196,0.0,0.0,47,0.00,,CLR,0.00,VWS V14.01,2013-01-30 02:18:00,
2013-01-29 21:23:00,58.5,37.8,28.76,SSW,196,0.0,0.0,46,0.00,,CLR,0.00,VWS V14.01,2013-01-30 02:23:00,
2013-01-29 21:29:00,57.7,37.7,28.76,SSW,196,0.0,0.0,47,0.00,,CLR,0.00,VWS V14.01,2013-01-30 02:29:00,
2013-01-29 21:34:00,57.2,37.2,28.76,SSW,196,0.0,0.0,47,0.00,,CLR,0.00,VWS V14.01,2013-01-30 02:34:00,
2013-01-29 21:39:00,57.0,38.1,28.76,SSW,196,0.0,0.0,49,0.00,,CLR,0.00,VWS V14.01,2013-01-30 02:39:00,
2013-01-29 21:44:00,56.8,37.9,28.76,SSW,196,2.7,2.7,49,0.00,,CLR,0.00,VWS V14.01,2013-01-30 02:44:00,
2013-01-29 21:49:00,56.7,38.2,28.79,SSW,196,0.0,0.0,50,0.00,,CLR,0.00,VWS V14.01,2013-01-30 02:49:00,
2013-01-29 21:54:00,56.3,37.9,28.79,SSW,196,0.0,0.0,50,0.00,,CLR,0.00,VWS V14.01,2013-01-30 02:54:00,
2013-01-29 21:59:00,56.5,38.1,28.79,SSW,196,0.0,0.0,50,0.00,,CLR,0.00,VWS V14.01,2013-01-30 02:59:00,
2013-01-29 22:04:00,56.3,37.4,28.76,SSW,196,0.0,0.0,49,0.00,,CLR,0.00,VWS V14.01,2013-01-30 03:04:00,
2013-01-29 22:09:00,55.6,37.2,28.76,SSW,196,2.2,2.2,50,0.00,,CLR,0.00,VWS V14.01,2013-01-30 03:09:00,
2013-01-29 22:14:00,55.6,38.7,28.76,SSW,196,0.0,0.0,53,0.00,,CLR,0.00,VWS V14.01,2013-01-30 03:14:00,
2013-01-29 22:20:00,55.4,38.1,28.76,SSW,196,0.0,0.0,52,0.00,,CLR,0.00,VWS V14.01,2013-01-30 03:20:00,
2013-01-29 22:25:00,54.9,38.1,28.76,SW,224,0.0,0.0,53,0.00,,CLR,0.00,VWS V14.01,2013-01-30 03:25:00,
2013-01-29 22:30:00,54.9,39.0,28.76,SW,224,2.2,2.2,55,0.00,,CLR,0.00,VWS V14.01,2013-01-30 03:30:00,
2013-01-29 22:35:00,54.9,39.0,28.76,West,263,0.0,0.0,55,0.00,,CLR,0.00,VWS V14.01,2013-01-30 03:35:00,
2013-01-29 22:40:00,55.2,40.7,28.76,SSE,159,0.0,3.1,58,0.00,,CLR,0.00,VWS V14.01,2013-01-30 03:40:00,
2013-01-29 22:45:00,56.1,40.2,28.76,SSE,159,2.2,2.2,55,0.00,,CLR,0.00,VWS V14.01,2013-01-30 03:45:00,
2013-01-29 22:50:00,55.8,40.3,28.76,NNE,25,4.9,4.9,56,0.00,,CLR,0.00,VWS V14.01,2013-01-30 03:50:00,
2013-01-29 22:55:00,54.3,38.5,28.76,SSW,198,0.0,0.0,55,0.00,,CLR,0.00,VWS V14.01,2013-01-30 03:55:00,
2013-01-29 23:00:00,54.5,39.6,28.76,SW,227,0.0,3.1,57,0.00,,CLR,0.00,VWS V14.01,2013-01-30 04:00:00,
2013-01-29 23:05:00,54.1,39.7,28.73,SW,227,0.0,0.0,58,0.00,,CLR,0.00,VWS V14.01,2013-01-30 04:05:00,